地図

経路データ

SID SEASON NUMBER BASIN SUBBASIN NAME ISO_TIME NATURE LAT LON WMO_WIND WMO_PRES WMO_AGENCY TRACK_TYPE DIST2LAND LANDFALL IFLAG USA_AGENCY USA_ATCF_ID USA_LAT USA_LON USA_RECORD USA_STATUS USA_WIND USA_PRES USA_SSHS USA_R34_NE USA_R34_SE USA_R34_SW USA_R34_NW USA_R50_NE USA_R50_SE USA_R50_SW USA_R50_NW USA_R64_NE USA_R64_SE USA_R64_SW USA_R64_NW USA_POCI USA_ROCI USA_RMW USA_EYE TOKYO_LAT TOKYO_LON TOKYO_GRADE TOKYO_WIND TOKYO_PRES TOKYO_R50_DIR TOKYO_R50_LONG TOKYO_R50_SHORT TOKYO_R30_DIR TOKYO_R30_LONG TOKYO_R30_SHORT TOKYO_LAND CMA_LAT CMA_LON CMA_CAT CMA_WIND CMA_PRES HKO_LAT HKO_LON HKO_CAT HKO_WIND HKO_PRES NEWDELHI_LAT NEWDELHI_LON NEWDELHI_GRADE NEWDELHI_WIND NEWDELHI_PRES NEWDELHI_CI NEWDELHI_DP NEWDELHI_POCI REUNION_LAT REUNION_LON REUNION_TYPE REUNION_WIND REUNION_PRES REUNION_TNUM REUNION_CI REUNION_RMW REUNION_R34_NE REUNION_R34_SE REUNION_R34_SW REUNION_R34_NW REUNION_R50_NE REUNION_R50_SE REUNION_R50_SW REUNION_R50_NW REUNION_R64_NE REUNION_R64_SE REUNION_R64_SW REUNION_R64_NW BOM_LAT BOM_LON BOM_TYPE BOM_WIND BOM_PRES BOM_TNUM BOM_CI BOM_RMW BOM_R34_NE BOM_R34_SE BOM_R34_SW BOM_R34_NW BOM_R50_NE BOM_R50_SE BOM_R50_SW BOM_R50_NW BOM_R64_NE BOM_R64_SE BOM_R64_SW BOM_R64_NW BOM_ROCI BOM_POCI BOM_EYE BOM_POS_METHOD BOM_PRES_METHOD NADI_LAT NADI_LON NADI_CAT NADI_WIND NADI_PRES WELLINGTON_LAT WELLINGTON_LON WELLINGTON_WIND WELLINGTON_PRES DS824_LAT DS824_LON DS824_STAGE DS824_WIND DS824_PRES TD9636_LAT TD9636_LON TD9636_STAGE TD9636_WIND TD9636_PRES TD9635_LAT TD9635_LON TD9635_WIND TD9635_PRES TD9635_ROCI NEUMANN_LAT NEUMANN_LON NEUMANN_CLASS NEUMANN_WIND NEUMANN_PRES MLC_LAT MLC_LON MLC_CLASS MLC_WIND MLC_PRES USA_GUST BOM_GUST BOM_GUST_PER REUNION_GUST REUNION_GUST_PER USA_SEAHGT USA_SEARAD_NE USA_SEARAD_SE USA_SEARAD_SW USA_SEARAD_NW STORM_SPEED STORM_DIR
1939275N15152 1939 68 WP MM NOT_NAMED 1939-10-01 21:00:00 NR 14.5000 152.300 main 1933 1930 __________O___ -1 14.5000 152.300 7 6 281
1939275N15152 1939 68 WP MM NOT_NAMED 1939-10-02 00:00:00 NR 14.5583 151.989 main 1938 1927 __________P___ -1 14.5583 151.989 7 7 275
1939275N15152 1939 68 WP MM NOT_NAMED 1939-10-02 03:00:00 NR 14.5634 151.602 main 1927 1903 __________P___ -1 14.5634 151.602 7 9 264
1939275N15152 1939 68 WP MM NOT_NAMED 1939-10-02 06:00:00 NR 14.4621 151.064 main 1903 1855 __________P___ -1 14.4621 151.064 7 13 254
1939275N15152 1939 68 WP MM NOT_NAMED 1939-10-02 09:00:00 NR 14.2000 150.300 main 1853 1793 __________O___ -1 14.2000 150.300 7 19 248
1939275N15152 1939 68 WP MM NOT_NAMED 1939-10-02 12:00:00 NR 13.7488 149.273 main 1782 1716 __________P___ -1 13.7488 149.273 7 24 245
1939275N15152 1939 68 WP MM NOT_NAMED 1939-10-02 15:00:00 NR 13.1903 148.088 main 1715 1658 __________P___ -1 13.1903 148.088 7 26 244
1939275N15152 1939 68 WP MM NOT_NAMED 1939-10-02 18:00:00 NR 12.6359 146.885 main 1646 1604 __________P___ -1 12.6359 146.885 7 24 246
1939275N15152 1939 68 WP MM NOT_NAMED 1939-10-02 21:00:00 NR 12.2000 145.800 main 1604 1587 __________O___ -1 12.2000 145.800 7 19 251
1939275N15152 1939 68 WP MM NOT_NAMED 1939-10-03 00:00:00 NR 12.0276 145.033 main 1589 1589 __________P___ -1 12.0276 145.033 7 14 261
1939275N15152 1939 68 WP MM NOT_NAMED 1939-10-03 03:00:00 NR 11.9891 144.391 main 1598 1598 __________P___ -1 11.9891 144.391 7 12 270
1939275N15152 1939 68 WP MM NOT_NAMED 1939-10-03 06:00:00 NR 12.0312 143.804 main 1609 1609 __________P___ -1 12.0312 143.804 7 12 275
1939275N15152 1939 68 WP MM NOT_NAMED 1939-10-03 09:00:00 NR 12.1000 143.200 main 1631 1606 __________O___ -1 12.1000 143.200 4 13 272
1939275N15152 1939 68 WP MM NOT_NAMED 1939-10-03 12:00:00 NR 12.0786 142.438 main 1603 1581 __________P___ -1 12.0786 142.438 4 15 269
1939275N15152 1939 68 WP MM NOT_NAMED 1939-10-03 15:00:00 NR 12.0757 141.655 main 1581 1547 __________P___ -1 12.0757 141.655 4 15 271
1939275N15152 1939 68 WP MM NOT_NAMED 1939-10-03 18:00:00 NR 12.1099 140.894 main 1547 1532 __________P___ -1 12.1099 140.894 4 14 275
1939275N15152 1939 68 WP MM NOT_NAMED 1939-10-03 21:00:00 NR 12.2000 140.200 main 1532 1518 __________O___ -1 12.2000 140.200 4 12 284
1939275N15152 1939 68 WP MM NOT_NAMED 1939-10-04 00:00:00 NR 12.3983 139.669 main 1518 1470 __________P___ -1 12.3983 139.669 4 11 295
1939275N15152 1939 68 WP MM NOT_NAMED 1939-10-04 03:00:00 NR 12.6477 139.201 main 1470 1429 __________P___ -1 12.6477 139.201 4 10 299
1939275N15152 1939 68 WP MM NOT_NAMED 1939-10-04 06:00:00 NR 12.8983 138.732 main 1420 1369 __________P___ -1 12.8983 138.732 4 11 295
1939275N15152 1939 68 WP MM NOT_NAMED 1939-10-04 09:00:00 NR 13.1000 138.200 main 1369 1296 __________O___ -1 13.1000 138.200 4 13 282
1939275N15152 1939 68 WP MM NOT_NAMED 1939-10-04 12:00:00 NR 13.1557 137.436 main 1285 1211 __________P___ -1 13.1557 137.436 4 15 272
1939275N15152 1939 68 WP MM NOT_NAMED 1939-10-04 15:00:00 NR 13.1599 136.616 main 1200 1126 __________P___ -1 13.1599 136.616 4 16 270
1939275N15152 1939 68 WP MM NOT_NAMED 1939-10-04 18:00:00 NR 13.1588 135.839 main 1115 1051 __________P___ -1 13.1588 135.839 4 14 272
1939275N15152 1939 68 WP MM NOT_NAMED 1939-10-04 21:00:00 NR 13.2000 135.200 main 1051 1022 __________O___ -1 13.2000 135.200 4 10 281
1939275N15152 1939 68 WP MM NOT_NAMED 1939-10-05 00:00:00 NR 13.3441 134.840 main 1012 996 __________P___ -1 13.3441 134.840 4 7 301
1939275N15152 1939 68 WP MM NOT_NAMED 1939-10-05 03:00:00 NR 13.5382 134.622 main 996 988 __________P___ -1 13.5382 134.622 4 6 319
1939275N15152 1939 68 WP MM NOT_NAMED 1939-10-05 06:00:00 NR 13.7633 134.468 main 991 972 __________P___ -1 13.7633 134.468 4 6 326
1939275N15152 1939 68 WP MM NOT_NAMED 1939-10-05 09:00:00 NR 14.0000 134.300 main 974 947 __________O___ -1 14.0000 134.300 4 7 317
1939275N15152 1939 68 WP MM NOT_NAMED 1939-10-05 12:00:00 NR 14.2544 134.000 main 949 924 __________P___ -1 14.2544 134.000 4 8 310
1939275N15152 1939 68 WP MM NOT_NAMED 1939-10-05 15:00:00 NR 14.5101 133.673 main 924 899 __________P___ -1 14.5101 133.673 4 8 307
1939275N15152 1939 68 WP MM NOT_NAMED 1939-10-05 18:00:00 NR 14.7357 133.335 main 889 865 __________P___ -1 14.7357 133.335 4 8 301
1939275N15152 1939 68 WP MM NOT_NAMED 1939-10-05 21:00:00 NR 14.9000 133.000 main 865 845 __________O___ -1 14.9000 133.000 4 6 289
1939275N15152 1939 68 WP MM NOT_NAMED 1939-10-06 00:00:00 NR 14.9270 132.765 main 845 815 __________P___ -1 14.9270 132.765 4 5 270
1939275N15152 1939 68 WP MM NOT_NAMED 1939-10-06 03:00:00 NR 14.8982 132.526 main 815 785 __________P___ -1 14.8982 132.526 4 5 264
1939275N15152 1939 68 WP MM NOT_NAMED 1939-10-06 06:00:00 NR 14.8703 132.224 main 785 745 __________P___ -1 14.8703 132.224 4 7 270
1939275N15152 1939 68 WP MM NOT_NAMED 1939-10-06 09:00:00 NR 14.9000 131.800 main 745 691 __________O___ -1 14.9000 131.800 4 11 280
1939275N15152 1939 68 WP MM NOT_NAMED 1939-10-06 12:00:00 NR 15.0500 131.132 main 681 627 __________P___ -1 15.0500 131.132 4 15 284
1939275N15152 1939 68 WP MM NOT_NAMED 1939-10-06 15:00:00 NR 15.2627 130.346 main 624 576 __________P___ -1 15.2627 130.346 4 16 287
1939275N15152 1939 68 WP MM NOT_NAMED 1939-10-06 18:00:00 NR 15.5188 129.538 main 568 518 __________P___ -1 15.5188 129.538 4 16 290
1939275N15152 1939 68 WP MM NOT_NAMED 1939-10-06 21:00:00 NR 15.8000 128.800 main 518 486 __________O___ -1 15.8000 128.800 4 13 295
1939275N15152 1939 68 WP MM NOT_NAMED 1939-10-07 00:00:00 NR 16.0849 128.275 main 486 462 __________P___ -1 16.0849 128.275 4 11 302
1939275N15152 1939 68 WP MM NOT_NAMED 1939-10-07 03:00:00 NR 16.3904 127.832 main 459 449 __________P___ -1 16.3904 127.832 4 10 307
1939275N15152 1939 68 WP MM NOT_NAMED 1939-10-07 06:00:00 NR 16.7008 127.422 main 449 441 __________P___ -1 16.7008 127.422 4 10 307
1939275N15152 1939 68 WP MM NOT_NAMED 1939-10-07 09:00:00 NR 17.0000 127.000 main 443 425 __________O___ -1 17.0000 127.000 4 11 302
1939275N15152 1939 68 WP MM NOT_NAMED 1939-10-07 12:00:00 NR 17.2686 126.480 main 426 375 __________P___ -1 17.2686 126.480 4 11 297
1939275N15152 1939 68 WP MM NOT_NAMED 1939-10-07 15:00:00 NR 17.5227 125.942 main 365 320 __________P___ -1 17.5227 125.942 4 11 296
1939275N15152 1939 68 WP MM NOT_NAMED 1939-10-07 18:00:00 NR 17.7655 125.408 main 320 276 __________P___ -1 17.7655 125.408 4 11 296
1939275N15152 1939 68 WP MM NOT_NAMED 1939-10-07 21:00:00 NR 18.0000 124.900 main 276 232 __________O___ -1 18.0000 124.900 4 10 296
1939275N15152 1939 68 WP MM NOT_NAMED 1939-10-08 00:00:00 NR 18.2151 124.457 main 232 189 __________P___ -1 18.2151 124.457 4 9 298
1939275N15152 1939 68 WP MM NOT_NAMED 1939-10-08 03:00:00 NR 18.4264 124.041 main 179 149 __________P___ -1 18.4264 124.041 4 9 299
1939275N15152 1939 68 WP MM NOT_NAMED 1939-10-08 06:00:00 NR 18.6495 123.629 main 138 110 __________P___ -1 18.6495 123.629 4 9 301
1939275N15152 1939 68 WP MM NOT_NAMED 1939-10-08 09:00:00 NR 18.9000 123.200 main 110 94 __________O___ -1 18.9000 123.200 4 11 304
1939275N15152 1939 68 WP MM NOT_NAMED 1939-10-08 12:00:00 NR 19.2455 122.682 main 98 98 __________P___ -1 19.2455 122.682 4 12 306
1939275N15152 1939 68 WP MM NOT_NAMED 1939-10-08 15:00:00 NR 19.6108 122.150 main 134 134 __________P___ -1 19.6108 122.150 4 12 306
1939275N15152 1939 68 WP MM NOT_NAMED 1939-10-08 18:00:00 NR 19.9456 121.642 main 158 158 __________P___ -1 19.9456 121.642 4 11 303
1939275N15152 1939 68 WP MM NOT_NAMED 1939-10-08 21:00:00 NR 20.2000 121.200 main 181 178 __________O___ -1 20.2000 121.200 4 8 295
1939275N15152 1939 68 WP MM NOT_NAMED 1939-10-09 00:00:00 NR 20.2737 120.889 main 178 178 __________P___ -1 20.2737 120.889 4 5 278
1939275N15152 1939 68 WP MM NOT_NAMED 1939-10-09 03:00:00 NR 20.2713 120.645 main 179 179 __________P___ -1 20.2713 120.645 4 4 268
1939275N15152 1939 68 WP MM NOT_NAMED 1939-10-09 06:00:00 NR 20.2583 120.429 main 181 181 __________P___ -1 20.2583 120.429 4 4 274
1939275N15152 1939 68 WP MM NOT_NAMED 1939-10-09 09:00:00 NR 20.3000 120.200 main 186 177 __________O___ -1 20.3000 120.200 4 6 294
1939275N15152 1939 68 WP MM NOT_NAMED 1939-10-09 12:00:00 NR 20.4939 119.857 main 177 172 __________P___ -1 20.4939 119.857 4 8 304
1939275N15152 1939 68 WP MM NOT_NAMED 1939-10-09 15:00:00 NR 20.7481 119.499 main 182 174 __________P___ -1 20.7481 119.499 4 8 310
1939275N15152 1939 68 WP MM NOT_NAMED 1939-10-09 18:00:00 NR 21.0283 119.166 main 184 184 __________P___ -1 21.0283 119.166 4 8 315
1939275N15152 1939 68 WP MM NOT_NAMED 1939-10-09 21:00:00 NR 21.3000 118.900 main 197 189 __________O___ -1 21.3000 118.900 4 6 322
1939275N15152 1939 68 WP MM NOT_NAMED 1939-10-10 00:00:00 NR 21.5058 118.760 main 190 187 __________P___ -1 21.5058 118.760 4 4 334
1939275N15152 1939 68 WP MM NOT_NAMED 1939-10-10 03:00:00 NR 21.6995 118.689 main 187 177 __________P___ -1 21.6995 118.689 4 4 345
1939275N15152 1939 68 WP MM NOT_NAMED 1939-10-10 06:00:00 NR 21.8934 118.648 main 187 180 __________P___ -1 21.8934 118.648 4 4 349
1939275N15152 1939 68 WP MM NOT_NAMED 1939-10-10 09:00:00 NR 22.1000 118.600 main 180 177 __________O___ -1 22.1000 118.600 4 5 341
1939275N15152 1939 68 WP MM NOT_NAMED 1939-10-10 12:00:00 NR 22.3601 118.473 main 172 142 __________P___ -1 22.3601 118.473 4 6 335
1939275N15152 1939 68 WP MM NOT_NAMED 1939-10-10 15:00:00 NR 22.6301 118.335 main 142 108 __________P___ -1 22.6301 118.335 4 6 335
1939275N15152 1939 68 WP MM NOT_NAMED 1939-10-10 18:00:00 NR 22.8851 118.205 main 108 84 __________P___ -1 22.8851 118.205 4 5 335
1939275N15152 1939 68 WP MM NOT_NAMED 1939-10-10 21:00:00 NR 23.1000 118.100 main 84 69 __________O___ -1 23.1000 118.100 4 4 337
1939275N15152 1939 68 WP MM NOT_NAMED 1939-10-11 00:00:00 NR 23.2568 118.035 main 60 52 __________P___ -1 23.2568 118.035 4 3 341
1939275N15152 1939 68 WP MM NOT_NAMED 1939-10-11 03:00:00 NR 23.3649 118.005 main 52 52 __________P___ -1 23.3649 118.005 4 2 346
1939275N15152 1939 68 WP MM NOT_NAMED 1939-10-11 06:00:00 NR 23.4406 117.997 main 52 46 __________P___ -1 23.4406 117.997 4 1 350
1939275N15152 1939 68 WP MM NOT_NAMED 1939-10-11 09:00:00 NR 23.5000 118.000 main 46 __________O___ -1 23.5000 118.000 4 1 0

デジタル台風データ・検索

IBTrACS Databaseについて

本データベースは、米国NOAAが公開する1842年以降の世界の熱帯低気圧のベストトラックデータアーカイブInternational Best Track Archive for Climate Stewardship (IBTrACS)を、ウェブで閲覧しやすい形式に変換したものです。

最終更新日:2021-10-21